Time;durP1;ratioP1;P1;durP2;ratioP2;P2;SDS_P1;SDS_P2;PMS_P1;PMS_P2;Temp;Humidity;BMP_temperature;BMP_pressure;BME280_temperature;BME280_humidity;BME280_pressure;Samples;Min_cycle;Max_cycle;Signal;HPM_P1;HPM_P2
2022/10/11 00:02:25;;;;;;;19.65;12.10;;;;;;;;;;1670383;86;20917;-71
2022/10/11 00:04:52;;;;;;;19.15;11.48;;;;;;;;;;1670167;86;21062;-71
2022/10/11 00:07:18;;;;;;;19.15;11.57;;;;;;;;;;1670247;86;20954;-71
2022/10/11 00:09:44;;;;;;;35.90;15.28;;;;;;;;;;1670466;86;20980;-71
2022/10/11 00:12:11;;;;;;;22.82;13.38;;;;;;;;;;1670384;86;20917;-72
2022/10/11 00:14:37;;;;;;;18.80;13.05;;;;;;;;;;1670540;86;20942;-72
2022/10/11 00:17:06;;;;;;;17.02;10.75;;;;;;;;;;1670119;86;21052;-73
2022/10/11 00:19:31;;;;;;;15.95;10.18;;;;;;;;;;1670423;84;21440;-72
2022/10/11 00:21:58;;;;;;;16.42;11.20;;;;;;;;;;1670345;86;20998;-73
2022/10/11 00:24:24;;;;;;;15.43;12.65;;;;;;;;;;1670557;86;21471;-72
2022/10/11 00:26:50;;;;;;;13.05;10.85;;;;;;;;;;1670675;86;20906;-73
2022/10/11 00:29:16;;;;;;;18.42;11.30;;;;;;;;;;1670299;86;21056;-73
2022/10/11 00:31:42;;;;;;;18.95;11.90;;;;;;;;;;1670383;86;21028;-72
2022/10/11 00:34:10;;;;;;;17.35;12.53;;;;;;;;;;1670435;86;20950;-72
2022/10/11 00:36:37;;;;;;;18.30;11.18;;;;;;;;;;1670392;86;20942;-72
2022/10/11 00:39:03;;;;;;;28.52;13.53;;;;;;;;;;1670392;86;21044;-72
2022/10/11 00:41:30;;;;;;;21.85;13.50;;;;;;;;;;1670255;86;21101;-70
2022/10/11 00:43:58;;;;;;;19.40;13.45;;;;;;;;;;1670393;86;20941;-73
2022/10/11 00:46:25;;;;;;;19.30;12.45;;;;;;;;;;1623862;87;20974;-72
2022/10/11 00:48:55;;;;;;;17.17;12.95;;;;;;;;;;1632971;87;21005;-72
2022/10/11 00:51:42;;;;;;;17.80;12.45;;;;;;;;;;1615351;87;21554;-72
2022/10/11 00:54:10;;;;;;;14.85;12.20;;;;;;;;;;1625441;86;21081;-72
2022/10/11 00:56:37;;;;;;;20.75;11.75;;;;;;;;;;1616475;87;21587;-72
2022/10/11 00:59:05;;;;;;;17.30;12.20;;;;;;;;;;1630523;86;20934;-72
2022/10/11 01:01:31;;;;;;;18.90;12.40;;;;;;;;;;1621109;86;21003;-72
2022/10/11 01:03:57;;;;;;;26.60;13.62;;;;;;;;;;1621940;87;20979;-72
2022/10/11 01:06:25;;;;;;;22.00;13.37;;;;;;;;;;1609610;86;21022;-71
2022/10/11 01:08:52;;;;;;;27.85;14.03;;;;;;;;;;1615471;86;21144;-71
2022/10/11 01:11:18;;;;;;;25.80;16.10;;;;;;;;;;1630408;86;21108;-72
2022/10/11 01:13:47;;;;;;;23.18;13.43;;;;;;;;;;1625612;87;21627;-72
2022/10/11 01:16:18;;;;;;;18.95;13.65;;;;;;;;;;1625949;87;21026;-72
2022/10/11 01:18:51;;;;;;;28.10;15.40;;;;;;;;;;1614281;86;22794;-72
2022/10/11 01:21:21;;;;;;;22.45;13.72;;;;;;;;;;1627251;87;21443;-72
2022/10/11 01:24:05;;;;;;;18.90;13.85;;;;;;;;;;1656786;84;20893;-72
2022/10/11 01:26:42;;;;;;;22.58;13.80;;;;;;;;;;1677290;84;20945;-71
2022/10/11 01:29:13;;;;;;;16.20;11.75;;;;;;;;;;1669868;83;21499;-71
2022/10/11 01:31:47;;;;;;;24.82;13.38;;;;;;;;;;1665045;84;21453;-72
2022/10/11 01:34:16;;;;;;;14.60;11.40;;;;;;;;;;1667768;83;21068;-72
2022/10/11 01:36:47;;;;;;;20.37;12.73;;;;;;;;;;1670408;84;20945;-71
2022/10/11 01:39:15;;;;;;;20.32;12.58;;;;;;;;;;1670442;86;21056;-71
2022/10/11 01:41:43;;;;;;;21.00;14.25;;;;;;;;;;1670523;86;20897;-70
2022/10/11 01:44:10;;;;;;;20.25;12.53;;;;;;;;;;1670081;86;21165;-70
2022/10/11 01:46:37;;;;;;;18.80;12.40;;;;;;;;;;1670324;86;21500;-70
2022/10/11 01:49:03;;;;;;;18.87;10.85;;;;;;;;;;1670287;86;20996;-73
2022/10/11 01:51:34;;;;;;;15.72;12.75;;;;;;;;;;1670527;86;21448;-70
2022/10/11 01:54:13;;;;;;;17.95;12.33;;;;;;;;;;1670252;86;20957;-72
2022/10/11 01:57:00;;;;;;;17.52;10.85;;;;;;;;;;1670359;86;20979;-72
2022/10/11 01:59:28;;;;;;;15.48;11.30;;;;;;;;;;1669323;86;20963;-71
2022/10/11 02:02:02;;;;;;;15.72;10.45;;;;;;;;;;1669492;86;20993;-71
2022/10/11 02:04:45;;;;;;;17.55;10.82;;;;;;;;;;1669203;86;20956;-71
2022/10/11 02:07:13;;;;;;;15.18;10.40;;;;;;;;;;1669222;86;20978;-72
2022/10/11 02:09:45;;;;;;;12.88;11.03;;;;;;;;;;1669202;86;21041;-72
2022/10/11 02:12:12;;;;;;;11.48;10.15;;;;;;;;;;1668927;86;21395;-71
2022/10/11 02:14:43;;;;;;;14.85;11.43;;;;;;;;;;1669422;86;20953;-71
2022/10/11 02:17:11;;;;;;;12.07;10.15;;;;;;;;;;1669329;86;20920;-71
2022/10/11 02:19:39;;;;;;;16.35;10.15;;;;;;;;;;1669392;86;20865;-71
2022/10/11 02:22:07;;;;;;;16.17;9.70;;;;;;;;;;1669553;86;21047;-71
2022/10/11 02:24:34;;;;;;;17.85;11.85;;;;;;;;;;1664992;85;20909;-72
2022/10/11 02:27:00;;;;;;;17.95;11.18;;;;;;;;;;1667753;85;21497;-72
2022/10/11 02:29:27;;;;;;;20.35;11.55;;;;;;;;;;1665265;85;20905;-72
2022/10/11 02:31:54;;;;;;;13.10;9.35;;;;;;;;;;1666707;85;21023;-72
2022/10/11 02:34:22;;;;;;;13.28;9.85;;;;;;;;;;1663339;86;21056;-71
2022/10/11 02:36:59;;;;;;;14.23;10.70;;;;;;;;;;1663135;85;20920;-72
2022/10/11 02:39:27;;;;;;;14.40;10.10;;;;;;;;;;1637771;84;21598;-71
2022/10/11 02:41:55;;;;;;;17.55;10.68;;;;;;;;;;1655048;85;21006;-71
2022/10/11 02:44:35;;;;;;;14.43;11.13;;;;;;;;;;1651637;85;21017;-72
2022/10/11 02:47:02;;;;;;;19.00;10.60;;;;;;;;;;1600632;88;22025;-72
2022/10/11 02:49:28;;;;;;;15.53;10.18;;;;;;;;;;1596565;89;20994;-72
2022/10/11 02:51:55;;;;;;;17.07;9.28;;;;;;;;;;1591392;89;21080;-70
2022/10/11 02:54:22;;;;;;;17.77;11.63;;;;;;;;;;1655317;84;21514;-72
2022/10/11 02:56:48;;;;;;;16.52;10.93;;;;;;;;;;1649283;84;20988;-71
2022/10/11 02:59:14;;;;;;;30.68;12.50;;;;;;;;;;1639674;85;21061;-71
2022/10/11 03:01:41;;;;;;;20.32;11.43;;;;;;;;;;1645841;85;20900;-70
2022/10/11 03:04:07;;;;;;;22.13;11.50;;;;;;;;;;1648797;85;21048;-73
2022/10/11 03:06:34;;;;;;;13.58;9.68;;;;;;;;;;1657814;85;21041;-72
2022/10/11 03:09:01;;;;;;;13.78;10.23;;;;;;;;;;1651835;85;21107;-72
2022/10/11 03:11:27;;;;;;;12.58;9.08;;;;;;;;;;1657317;85;21118;-72
2022/10/11 03:13:54;;;;;;;14.85;10.20;;;;;;;;;;1661936;85;21051;-72
2022/10/11 03:16:20;;;;;;;13.60;9.68;;;;;;;;;;1681645;84;20937;-71
2022/10/11 03:18:47;;;;;;;14.65;9.05;;;;;;;;;;1674930;84;20901;-72
2022/10/11 03:21:13;;;;;;;13.28;8.93;;;;;;;;;;1667844;84;20949;-71
2022/10/11 03:23:41;;;;;;;14.63;7.90;;;;;;;;;;1670476;86;21309;-72
2022/10/11 03:26:07;;;;;;;10.45;9.10;;;;;;;;;;1670467;86;20941;-72
2022/10/11 03:28:33;;;;;;;10.98;7.60;;;;;;;;;;1670439;86;21036;-73
2022/10/11 03:31:00;;;;;;;11.22;8.18;;;;;;;;;;1670499;86;20945;-74
2022/10/11 03:33:26;;;;;;;9.18;7.53;;;;;;;;;;1670276;86;20937;-73
2022/10/11 03:35:52;;;;;;;14.15;7.92;;;;;;;;;;1670476;86;21047;-72
2022/10/11 03:38:19;;;;;;;17.75;9.45;;;;;;;;;;1670345;86;20897;-71
2022/10/11 03:40:45;;;;;;;15.43;8.85;;;;;;;;;;1670421;86;21479;-73
2022/10/11 03:43:12;;;;;;;16.67;10.35;;;;;;;;;;1670420;86;21439;-72
2022/10/11 03:45:41;;;;;;;20.20;10.15;;;;;;;;;;1670264;86;20905;-72
2022/10/11 03:48:06;;;;;;;22.00;12.43;;;;;;;;;;1670762;86;20992;-74
2022/10/11 03:50:33;;;;;;;28.23;14.65;;;;;;;;;;1670709;86;20908;-72
2022/10/11 03:52:59;;;;;;;21.75;12.82;;;;;;;;;;1670738;86;20950;-73
2022/10/11 03:55:25;;;;;;;19.57;12.88;;;;;;;;;;1670653;86;20902;-72
2022/10/11 03:57:51;;;;;;;23.60;12.68;;;;;;;;;;1670485;86;20960;-73
2022/10/11 04:00:17;;;;;;;23.95;16.48;;;;;;;;;;1669612;86;21000;-74
2022/10/11 04:02:43;;;;;;;23.50;13.60;;;;;;;;;;1669750;86;26540;-74
2022/10/11 04:05:11;;;;;;;27.83;15.87;;;;;;;;;;1669717;86;20916;-73
2022/10/11 04:07:39;;;;;;;38.20;16.27;;;;;;;;;;1669590;86;21455;-72
2022/10/11 04:10:06;;;;;;;49.20;18.02;;;;;;;;;;1669906;86;20916;-73
2022/10/11 04:12:32;;;;;;;39.78;19.35;;;;;;;;;;1669599;86;20929;-73
2022/10/11 04:14:58;;;;;;;39.35;17.75;;;;;;;;;;1669809;86;20860;-73
2022/10/11 04:17:24;;;;;;;38.42;19.17;;;;;;;;;;1669481;86;25003;-73
2022/10/11 04:19:51;;;;;;;34.38;17.10;;;;;;;;;;1669970;86;20881;-74
2022/10/11 04:22:16;;;;;;;33.00;17.62;;;;;;;;;;1669466;86;20916;-74
2022/10/11 04:24:43;;;;;;;31.73;18.55;;;;;;;;;;1641869;85;21024;-73
2022/10/11 04:27:09;;;;;;;35.35;18.00;;;;;;;;;;1666486;85;20900;-75
2022/10/11 04:29:36;;;;;;;37.35;21.60;;;;;;;;;;1656393;86;20885;-72
2022/10/11 04:32:02;;;;;;;31.93;16.65;;;;;;;;;;1666074;86;20917;-74
2022/10/11 04:34:28;;;;;;;33.83;18.00;;;;;;;;;;1670559;85;20944;-73
2022/10/11 04:36:54;;;;;;;39.88;21.12;;;;;;;;;;1657915;86;21731;-73
2022/10/11 04:39:21;;;;;;;43.20;20.75;;;;;;;;;;1662023;85;21010;-73
2022/10/11 04:41:47;;;;;;;40.03;21.95;;;;;;;;;;1660759;85;20908;-73
2022/10/11 04:44:13;;;;;;;48.17;24.82;;;;;;;;;;1663802;85;20940;-74
2022/10/11 04:46:39;;;;;;;39.50;21.45;;;;;;;;;;1658433;86;21455;-73
2022/10/11 04:49:06;;;;;;;36.50;20.15;;;;;;;;;;1668168;85;20996;-75
2022/10/11 04:51:32;;;;;;;38.10;21.33;;;;;;;;;;1661416;85;20897;-74
2022/10/11 04:53:58;;;;;;;45.33;22.60;;;;;;;;;;1658176;86;20957;-74
2022/10/11 04:56:25;;;;;;;47.03;27.05;;;;;;;;;;1662371;86;21403;-74
2022/10/11 04:58:53;;;;;;;73.72;33.50;;;;;;;;;;1667183;85;20979;-72
2022/10/11 05:01:20;;;;;;;88.95;39.85;;;;;;;;;;1672174;84;21001;-73
2022/10/11 05:03:46;;;;;;;105.72;47.62;;;;;;;;;;1671061;84;21385;-73
2022/10/11 05:06:12;;;;;;;96.60;44.23;;;;;;;;;;1669301;84;20898;-74
2022/10/11 05:08:39;;;;;;;115.72;50.23;;;;;;;;;;1673156;84;21472;-72
2022/10/11 05:11:06;;;;;;;104.87;41.40;;;;;;;;;;1670482;86;20969;-72
2022/10/11 05:13:33;;;;;;;66.28;31.87;;;;;;;;;;1670704;86;21597;-72
2022/10/11 05:15:59;;;;;;;75.05;37.28;;;;;;;;;;1670674;86;20933;-73
2022/10/11 05:18:26;;;;;;;69.17;34.50;;;;;;;;;;1670868;86;20901;-73
2022/10/11 05:21:00;;;;;;;59.48;29.32;;;;;;;;;;1670527;86;20941;-72
2022/10/11 05:23:26;;;;;;;44.20;26.52;;;;;;;;;;1670718;86;20878;-72
2022/10/11 05:25:52;;;;;;;46.28;25.08;;;;;;;;;;1670484;86;21392;-73
2022/10/11 05:28:20;;;;;;;41.50;21.33;;;;;;;;;;1670752;86;20886;-72
2022/10/11 05:30:47;;;;;;;36.45;21.12;;;;;;;;;;1670590;86;20987;-71
2022/10/11 05:33:13;;;;;;;35.05;20.30;;;;;;;;;;1670660;86;21012;-71
2022/10/11 05:35:39;;;;;;;34.45;21.37;;;;;;;;;;1670482;86;20957;-73
2022/10/11 05:38:05;;;;;;;32.95;22.02;;;;;;;;;;1670677;86;21005;-73
2022/10/11 05:40:32;;;;;;;50.12;27.75;;;;;;;;;;1670391;86;20893;-73
2022/10/11 05:42:58;;;;;;;41.35;28.98;;;;;;;;;;1670734;86;21416;-73
2022/10/11 05:45:24;;;;;;;52.88;29.67;;;;;;;;;;1670516;86;20945;-72
2022/10/11 05:47:50;;;;;;;47.10;30.95;;;;;;;;;;1670604;86;21476;-73
2022/10/11 05:50:16;;;;;;;48.90;32.25;;;;;;;;;;1670431;86;20986;-72
2022/10/11 05:52:42;;;;;;;52.17;33.73;;;;;;;;;;1670600;86;20905;-74
2022/10/11 05:55:08;;;;;;;59.70;31.95;;;;;;;;;;1670423;86;20937;-71
2022/10/11 05:57:34;;;;;;;46.53;30.97;;;;;;;;;;1670636;86;20901;-73
2022/10/11 06:00:01;;;;;;;49.20;31.40;;;;;;;;;;1669435;86;20995;-71
2022/10/11 06:02:27;;;;;;;49.90;30.40;;;;;;;;;;1669770;86;21439;-70
2022/10/11 06:08:32;;;;;;;55.75;32.08;;;;;;;;;;1667400;86;41001;-72
2022/10/11 06:14:32;;;;;;;61.35;34.67;;;;;;;;;;1669187;86;20930;-71
2022/10/11 06:20:33;;;;;;;77.75;50.85;;;;;;;;;;1669130;86;20957;-72
2022/10/11 06:26:33;;;;;;;77.35;51.30;;;;;;;;;;1669131;86;20976;-72
2022/10/11 06:32:35;;;;;;;81.95;44.60;;;;;;;;;;1669681;86;20911;-72
2022/10/11 06:38:35;;;;;;;59.20;38.63;;;;;;;;;;1669272;86;20930;-70
2022/10/11 06:44:36;;;;;;;61.23;38.70;;;;;;;;;;1669188;86;20923;-69
2022/10/11 06:50:38;;;;;;;38.92;24.57;;;;;;;;;;1669118;86;21433;-72
2022/10/11 06:56:39;;;;;;;19.15;11.43;;;;;;;;;;1669704;86;20934;-71
2022/10/11 07:02:40;;;;;;;27.48;16.12;;;;;;;;;;1669863;86;20904;-72
2022/10/11 07:08:40;;;;;;;22.67;16.52;;;;;;;;;;1670409;86;20896;-71
2022/10/11 07:14:41;;;;;;;14.03;9.90;;;;;;;;;;1670003;86;20932;-71
2022/10/11 07:20:41;;;;;;;10.65;7.55;;;;;;;;;;1670473;86;20936;-72
2022/10/11 07:23:07;;;;;;;15.10;9.70;;;;;;;;;;1668305;85;20924;-72
2022/10/11 07:28:59;;;;;;;24.07;16.95;;;;;;;;;;1637634;85;20952;-72
2022/10/11 07:31:25;;;;;;;33.73;29.57;;;;;;;;;;1636065;86;21435;-73
2022/10/11 07:37:17;;;;;;;27.40;22.30;;;;;;;;;;1641080;86;21398;-72
2022/10/11 07:39:43;;;;;;;21.00;16.07;;;;;;;;;;1640670;87;21498;-71
2022/10/11 07:42:09;;;;;;;20.55;16.85;;;;;;;;;;1644564;87;20927;-72
2022/10/11 07:44:36;;;;;;;22.02;17.17;;;;;;;;;;1643285;87;21082;-71
2022/10/11 07:47:02;;;;;;;30.62;20.68;;;;;;;;;;1645379;87;21027;-72
2022/10/11 07:49:28;;;;;;;29.75;21.57;;;;;;;;;;1640424;87;21043;-71
2022/10/11 07:51:54;;;;;;;36.70;27.42;;;;;;;;;;1641372;87;21014;-71
2022/10/11 07:54:20;;;;;;;32.05;23.60;;;;;;;;;;1642058;87;21426;-71
2022/10/11 07:56:46;;;;;;;29.07;19.40;;;;;;;;;;1646939;86;21619;-71
2022/10/11 07:59:13;;;;;;;27.25;18.85;;;;;;;;;;1665321;85;20964;-72
2022/10/11 08:01:39;;;;;;;21.00;14.45;;;;;;;;;;1637640;87;21439;-72
2022/10/11 08:04:06;;;;;;;19.32;12.85;;;;;;;;;;1642311;87;20913;-70
2022/10/11 08:06:32;;;;;;;19.87;14.18;;;;;;;;;;1668356;85;20950;-72
2022/10/11 08:08:59;;;;;;;13.45;9.83;;;;;;;;;;1667361;85;21582;-73
2022/10/11 08:11:28;;;;;;;15.23;10.00;;;;;;;;;;1667602;84;20926;-70
2022/10/11 08:13:55;;;;;;;14.75;8.85;;;;;;;;;;1668853;85;20894;-71
2022/10/11 08:16:23;;;;;;;8.15;6.12;;;;;;;;;;1668174;85;20927;-72
2022/10/11 08:18:49;;;;;;;9.10;6.53;;;;;;;;;;1665381;85;21188;-74
2022/10/11 08:21:16;;;;;;;6.10;4.50;;;;;;;;;;1650500;84;21023;-74
2022/10/11 08:23:42;;;;;;;4.80;3.25;;;;;;;;;;1643064;87;20982;-72
2022/10/11 08:26:08;;;;;;;5.67;4.22;;;;;;;;;;1646057;84;21050;-72
2022/10/11 08:28:34;;;;;;;13.50;8.85;;;;;;;;;;1639911;86;20928;-73
2022/10/11 08:31:00;;;;;;;6.10;4.78;;;;;;;;;;1645767;87;20984;-71
2022/10/11 08:33:27;;;;;;;4.00;2.52;;;;;;;;;;1616416;87;21589;-72
2022/10/11 08:35:53;;;;;;;2.65;2.10;;;;;;;;;;1646494;87;20919;-72
2022/10/11 08:38:20;;;;;;;6.78;1.90;;;;;;;;;;1645645;87;21430;-72
2022/10/11 08:40:48;;;;;;;2.37;1.95;;;;;;;;;;1642888;87;20923;-72
2022/10/11 08:43:19;;;;;;;3.33;2.20;;;;;;;;;;1642455;87;20957;-72
2022/10/11 08:45:47;;;;;;;2.98;2.27;;;;;;;;;;1643292;87;21001;-76
2022/10/11 08:48:15;;;;;;;3.87;2.52;;;;;;;;;;1645372;87;21097;-72
2022/10/11 08:50:41;;;;;;;7.00;5.37;;;;;;;;;;1639433;87;21533;-74
2022/10/11 08:53:15;;;;;;;4.55;2.50;;;;;;;;;;1643745;84;21034;-71
2022/10/11 08:55:44;;;;;;;3.72;2.55;;;;;;;;;;1643807;87;21008;-72
2022/10/11 08:58:11;;;;;;;4.20;2.20;;;;;;;;;;1653226;85;21548;-72
2022/10/11 09:00:37;;;;;;;2.30;1.80;;;;;;;;;;1660543;84;20892;-72
2022/10/11 09:03:05;;;;;;;4.42;2.30;;;;;;;;;;1644667;87;20892;-73
2022/10/11 09:05:33;;;;;;;3.20;1.82;;;;;;;;;;1644529;87;20967;-74
2022/10/11 09:08:07;;;;;;;4.33;1.98;;;;;;;;;;1646713;87;21035;-74
2022/10/11 09:10:52;;;;;;;2.77;1.80;;;;;;;;;;1644813;87;21108;-75
2022/10/11 09:13:42;;;;;;;3.72;2.00;;;;;;;;;;1647011;87;20968;-73
2022/10/11 09:16:11;;;;;;;2.72;1.75;;;;;;;;;;1648095;86;20931;-77
2022/10/11 09:18:59;;;;;;;4.20;1.77;;;;;;;;;;1643466;87;20935;-77
2022/10/11 09:21:26;;;;;;;;;;;;;;;;;;1647545;87;20964;-76
2022/10/11 09:23:54;;;;;;;3.20;1.70;;;;;;;;;;1617614;87;20651;-78
2022/10/11 09:26:22;;;;;;;1.80;1.65;;;;;;;;;;1642824;87;20908;-76
2022/10/11 09:28:56;;;;;;;3.00;1.82;;;;;;;;;;1642716;87;20955;-75
2022/10/11 09:31:23;;;;;;;2.62;1.70;;;;;;;;;;1647421;87;20999;-77
2022/10/11 09:33:50;;;;;;;3.30;2.08;;;;;;;;;;1644224;87;20928;-76
2022/10/11 09:36:30;;;;;;;3.70;1.90;;;;;;;;;;1646928;87;21604;-74
2022/10/11 09:38:58;;;;;;;2.45;1.82;;;;;;;;;;1648713;84;21515;-77
2022/10/11 10:01:23;;;;;;;2.98;2.27;;;;;;;;;;1659901;85;20913;-74
2022/10/11 10:03:52;;;;;;;3.83;1.82;;;;;;;;;;1691332;83;20907;-76
2022/10/11 10:06:22;;;;;;;2.45;2.17;;;;;;;;;;1691232;83;21094;-75
2022/10/11 10:08:49;;;;;;;2.37;2.05;;;;;;;;;;1695457;84;20942;-76
2022/10/11 10:11:16;;;;;;;4.35;2.20;;;;;;;;;;1687927;83;20875;-77
2022/10/11 10:13:45;;;;;;;3.15;1.98;;;;;;;;;;1687399;84;20987;-78
2022/10/11 10:16:19;;;;;;;3.75;2.58;;;;;;;;;;1683530;84;20977;-74
2022/10/11 10:18:51;;;;;;;4.08;2.87;;;;;;;;;;1665774;86;20993;-77
2022/10/11 10:21:17;;;;;;;3.33;2.45;;;;;;;;;;1696172;84;20921;-76
2022/10/11 10:23:44;;;;;;;3.30;2.30;;;;;;;;;;1669508;84;20963;-77
2022/10/11 10:26:12;;;;;;;6.55;2.50;;;;;;;;;;1664966;84;20946;-76
2022/10/11 10:28:43;;;;;;;6.95;2.75;;;;;;;;;;1698432;84;21091;-77
2022/10/11 10:31:11;;;;;;;5.10;2.35;;;;;;;;;;1685674;84;21018;-77
2022/10/11 10:33:38;;;;;;;3.35;2.47;;;;;;;;;;1694722;84;20867;-77
2022/10/11 10:36:05;;;;;;;2.98;1.92;;;;;;;;;;1693911;84;20922;-77
2022/10/11 10:38:32;;;;;;;2.55;1.87;;;;;;;;;;1664876;86;20911;-77
2022/10/11 10:41:11;;;;;;;3.95;2.00;;;;;;;;;;1698640;84;20971;-76
2022/10/11 10:43:38;;;;;;;1.90;1.70;;;;;;;;;;1688008;84;21006;-76
2022/10/11 10:46:06;;;;;;;4.00;1.60;;;;;;;;;;1688534;84;21429;-76
2022/10/11 10:48:43;;;;;;;2.92;2.33;;;;;;;;;;1685203;83;21496;-77
2022/10/11 10:51:13;;;;;;;3.05;2.10;;;;;;;;;;1659720;86;20964;-78
2022/10/11 10:53:41;;;;;;;6.47;2.70;;;;;;;;;;1661171;86;20998;-78
2022/10/11 10:56:11;;;;;;;5.37;3.42;;;;;;;;;;1653256;86;21674;-74
2022/10/11 10:58:55;;;;;;;3.02;1.82;;;;;;;;;;1657415;85;20880;-74
2022/10/11 11:01:23;;;;;;;3.65;1.70;;;;;;;;;;1640820;85;21003;-75
2022/10/11 11:03:57;;;;;;;2.00;1.75;;;;;;;;;;1649211;86;20897;-78
2022/10/11 11:06:31;;;;;;;2.12;1.80;;;;;;;;;;1656233;85;20970;-78
2022/10/11 11:09:15;;;;;;;2.20;1.70;;;;;;;;;;1639183;86;20998;-77
2022/10/11 11:11:46;;;;;;;3.80;2.00;;;;;;;;;;1642928;86;20928;-77
2022/10/11 11:14:14;;;;;;;2.87;2.05;;;;;;;;;;1633839;85;20979;-77
2022/10/11 11:16:43;;;;;;;6.12;2.20;;;;;;;;;;1640233;85;21502;-79
2022/10/11 11:19:11;;;;;;;3.40;2.08;;;;;;;;;;1646922;86;20957;-77
2022/10/11 11:21:37;;;;;;;;;;;;;;;;;;1647568;86;20993;-73
2022/10/11 11:24:08;;;;;;;6.17;2.90;;;;;;;;;;1645274;86;20174;-78
2022/10/11 11:26:36;;;;;;;3.50;2.83;;;;;;;;;;1625250;86;20916;-79
2022/10/11 11:29:07;;;;;;;6.55;4.28;;;;;;;;;;1668306;84;20971;-79
2022/10/11 11:31:52;;;;;;;4.65;3.45;;;;;;;;;;1671415;85;20987;-77
2022/10/11 11:34:28;;;;;;;6.15;3.10;;;;;;;;;;1674536;84;21028;-77
2022/10/11 11:36:56;;;;;;;3.50;2.75;;;;;;;;;;1666670;84;20881;-78
2022/10/11 11:39:24;;;;;;;6.08;2.60;;;;;;;;;;1671693;85;20920;-80
2022/10/11 11:41:52;;;;;;;8.25;3.37;;;;;;;;;;1674546;85;21458;-73
2022/10/11 11:44:20;;;;;;;4.03;3.25;;;;;;;;;;1670015;85;20913;-75
2022/10/11 11:46:54;;;;;;;3.35;2.80;;;;;;;;;;1671336;84;21074;-77
2022/10/11 11:49:25;;;;;;;6.05;3.70;;;;;;;;;;1675840;84;20916;-76
2022/10/11 11:51:51;;;;;;;5.53;3.30;;;;;;;;;;1671842;85;20949;-75
2022/10/11 11:54:23;;;;;;;3.50;2.33;;;;;;;;;;1641106;85;20906;-77
2022/10/11 11:57:03;;;;;;;4.40;3.55;;;;;;;;;;1672482;85;21659;-78
2022/10/11 11:59:31;;;;;;;5.17;2.90;;;;;;;;;;1668523;85;21081;-75
2022/10/11 12:02:01;;;;;;;3.70;3.02;;;;;;;;;;1673913;85;20858;-78
2022/10/11 12:04:33;;;;;;;6.45;3.17;;;;;;;;;;1668412;85;21204;-77
2022/10/11 12:07:01;;;;;;;3.12;2.80;;;;;;;;;;1670787;85;20994;-76
2022/10/11 12:09:27;;;;;;;;;;;;;;;;;;1668045;84;20934;-78
2022/10/11 12:11:54;;;;;;;7.05;3.58;;;;;;;;;;1670961;85;21002;-74
2022/10/11 12:14:26;;;;;;;6.70;4.40;;;;;;;;;;1664945;85;20838;-77
2022/10/11 12:17:07;;;;;;;6.87;4.90;;;;;;;;;;1669323;85;20894;-77
2022/10/11 12:19:36;;;;;;;6.62;5.28;;;;;;;;;;1675206;85;20985;-77
2022/10/11 12:22:20;;;;;;;9.08;3.85;;;;;;;;;;1668937;84;20954;-77
2022/10/11 12:24:54;;;;;;;4.45;3.70;;;;;;;;;;1672838;85;21451;-77
2022/10/11 12:27:36;;;;;;;5.83;3.60;;;;;;;;;;1671439;84;20861;-75
2022/10/11 12:30:04;;;;;;;4.80;3.40;;;;;;;;;;1668739;85;20934;-77
2022/10/11 12:32:35;;;;;;;5.00;3.67;;;;;;;;;;1668046;85;20963;-78
2022/10/11 12:35:20;;;;;;;4.28;3.22;;;;;;;;;;1635847;85;20966;-77
2022/10/11 12:37:50;;;;;;;7.20;3.17;;;;;;;;;;1668850;85;21642;-76
2022/10/11 12:40:33;;;;;;;4.08;3.10;;;;;;;;;;1661272;85;20889;-77
2022/10/11 12:43:11;;;;;;;3.67;2.77;;;;;;;;;;1673495;85;20885;-76
2022/10/11 12:45:38;;;;;;;6.67;2.55;;;;;;;;;;1664395;85;21444;-78
2022/10/11 12:48:06;;;;;;;3.83;2.30;;;;;;;;;;1672030;85;20937;-77
2022/10/11 12:50:38;;;;;;;5.33;2.40;;;;;;;;;;1666997;84;20980;-77
2022/10/11 12:53:06;;;;;;;2.72;2.40;;;;;;;;;;1670537;84;20874;-77
2022/10/11 12:55:38;;;;;;;2.85;2.10;;;;;;;;;;1668316;84;20923;-80
2022/10/11 12:58:12;;;;;;;2.92;2.05;;;;;;;;;;1674861;85;21026;-77
2022/10/11 13:00:42;;;;;;;4.33;2.80;;;;;;;;;;1670733;85;21009;-76
2022/10/11 13:03:27;;;;;;;3.60;2.52;;;;;;;;;;1668464;85;20999;-77
2022/10/11 13:05:55;;;;;;;3.98;2.80;;;;;;;;;;1665968;85;20909;-76
2022/10/11 13:08:23;;;;;;;5.08;2.55;;;;;;;;;;1671269;85;20897;-78
2022/10/11 13:10:50;;;;;;;2.67;1.98;;;;;;;;;;1671326;85;20981;-75
2022/10/11 13:13:18;;;;;;;4.08;2.47;;;;;;;;;;1643972;85;20869;-74
2022/10/11 13:15:44;;;;;;;4.22;2.20;;;;;;;;;;1671094;85;21070;-78
2022/10/11 13:18:12;;;;;;;2.77;2.15;;;;;;;;;;1673985;85;21627;-74
2022/10/11 13:20:38;;;;;;;4.92;2.60;;;;;;;;;;1669832;85;20991;-76
2022/10/11 13:23:16;;;;;;;3.92;2.75;;;;;;;;;;1667968;84;20944;-76
2022/10/11 13:25:42;;;;;;;4.15;2.47;;;;;;;;;;1662531;85;20916;-76
2022/10/11 13:28:08;;;;;;;4.30;2.98;;;;;;;;;;1674318;85;20971;-75
2022/10/11 13:30:35;;;;;;;4.25;2.02;;;;;;;;;;1673372;85;21443;-77
2022/10/11 13:33:03;;;;;;;2.83;2.40;;;;;;;;;;1675138;85;20944;-76
2022/10/11 13:35:30;;;;;;;5.87;2.08;;;;;;;;;;1669828;84;20912;-77
2022/10/11 13:37:56;;;;;;;2.83;2.40;;;;;;;;;;1672998;84;20995;-77
2022/10/11 13:40:22;;;;;;;3.25;2.58;;;;;;;;;;1670307;85;21005;-78
2022/10/11 13:42:49;;;;;;;5.35;3.20;;;;;;;;;;1672046;85;21024;-77
2022/10/11 13:45:17;;;;;;;2.40;2.08;;;;;;;;;;1667782;85;20968;-78
2022/10/11 13:47:43;;;;;;;5.53;3.17;;;;;;;;;;1669509;84;20987;-76
2022/10/11 13:50:15;;;;;;;8.93;5.22;;;;;;;;;;1645320;85;20936;-76
2022/10/11 13:52:56;;;;;;;9.15;5.50;;;;;;;;;;1673659;85;21057;-76
2022/10/11 13:55:28;;;;;;;8.83;4.97;;;;;;;;;;1675219;84;20932;-78
2022/10/11 13:57:55;;;;;;;9.75;4.80;;;;;;;;;;1672411;85;20936;-77
2022/10/11 14:00:25;;;;;;;9.35;5.62;;;;;;;;;;1673464;85;20929;-78
2022/10/11 14:02:55;;;;;;;10.85;5.80;;;;;;;;;;1613400;88;21155;-77
2022/10/11 14:05:31;;;;;;;7.40;4.33;;;;;;;;;;1675169;85;21130;-77
2022/10/11 14:07:58;;;;;;;13.90;7.28;;;;;;;;;;1675629;84;20869;-77
2022/10/11 14:10:25;;;;;;;12.07;6.58;;;;;;;;;;1664420;84;21544;-77
2022/10/11 14:13:08;;;;;;;9.80;6.62;;;;;;;;;;1668032;84;20851;-79
2022/10/11 14:15:36;;;;;;;14.93;8.38;;;;;;;;;;1665219;85;21383;-75
2022/10/11 14:18:23;;;;;;;15.83;9.63;;;;;;;;;;1671489;84;21579;-75
2022/10/11 14:24:16;;;;;;;51.58;26.05;;;;;;;;;;1668078;85;20886;-75
2022/10/11 14:26:46;;;;;;;191.45;151.50;;;;;;;;;;1671140;85;20925;-76
2022/10/11 14:29:27;;;;;;;30.23;19.45;;;;;;;;;;1675047;85;21105;-77
2022/10/11 14:32:04;;;;;;;36.25;20.72;;;;;;;;;;1670488;85;20991;-76
2022/10/11 14:34:31;;;;;;;28.35;16.07;;;;;;;;;;1666903;85;20927;-76
2022/10/11 14:36:57;;;;;;;30.77;17.32;;;;;;;;;;1670982;84;21387;-76
2022/10/11 14:39:23;;;;;;;22.32;14.13;;;;;;;;;;1670301;85;20971;-76
2022/10/11 14:41:50;;;;;;;25.70;15.65;;;;;;;;;;1672395;84;20882;-76
2022/10/11 14:44:16;;;;;;;34.45;15.13;;;;;;;;;;1672100;84;21035;-75
2022/10/11 14:46:44;;;;;;;35.30;19.70;;;;;;;;;;1673311;84;20878;-76
2022/10/11 14:49:12;;;;;;;42.23;16.07;;;;;;;;;;1669077;85;20887;-76
2022/10/11 14:51:39;;;;;;;41.02;16.77;;;;;;;;;;1668956;85;20990;-76
2022/10/11 14:54:05;;;;;;;42.58;18.10;;;;;;;;;;1640360;86;20908;-75
2022/10/11 14:56:31;;;;;;;48.60;21.75;;;;;;;;;;1630368;86;21605;-75
2022/10/11 14:58:57;;;;;;;50.38;19.42;;;;;;;;;;1636545;85;20967;-76
2022/10/11 15:01:24;;;;;;;41.15;18.82;;;;;;;;;;1636143;86;20979;-76
2022/10/11 15:03:50;;;;;;;52.70;22.58;;;;;;;;;;1645864;87;21053;-75
2022/10/11 15:06:18;;;;;;;139.72;60.45;;;;;;;;;;1645302;85;20929;-75
2022/10/11 15:08:44;;;;;;;158.30;73.95;;;;;;;;;;1643140;87;21404;-75
2022/10/11 15:11:11;;;;;;;132.40;55.60;;;;;;;;;;1619089;87;20907;-75
2022/10/11 15:13:37;;;;;;;106.70;47.13;;;;;;;;;;1643493;87;20904;-74
2022/10/11 15:16:04;;;;;;;161.50;76.82;;;;;;;;;;1643299;85;20930;-75
2022/10/11 15:18:31;;;;;;;120.90;54.73;;;;;;;;;;1643596;86;20986;-74
2022/10/11 15:20:57;;;;;;;139.15;59.93;;;;;;;;;;1645527;85;21141;-75
2022/10/11 15:23:23;;;;;;;135.30;60.55;;;;;;;;;;1642829;87;20914;-75
2022/10/11 15:25:49;;;;;;;246.13;115.03;;;;;;;;;;1642481;87;20904;-75
2022/10/11 15:28:20;;;;;;;170.02;68.95;;;;;;;;;;1644163;85;21430;-75
2022/10/11 15:30:47;;;;;;;111.40;52.45;;;;;;;;;;1647269;87;21504;-74
2022/10/11 15:33:16;;;;;;;108.87;50.15;;;;;;;;;;1645278;87;21580;-73
2022/10/11 15:35:42;;;;;;;134.07;62.73;;;;;;;;;;1643174;87;21025;-73
2022/10/11 15:38:11;;;;;;;126.38;59.25;;;;;;;;;;1636851;87;21061;-75
2022/10/11 15:40:37;;;;;;;;;;;;;;;;;;1640119;86;20950;-73
2022/10/11 15:49:53;;;;;;;170.95;90.42;;;;;;;;;;1687383;83;20966;-74
2022/10/11 15:55:46;;;;;;;175.07;96.32;;;;;;;;;;1685635;83;20951;-74
2022/10/11 15:58:15;;;;;;;158.72;83.95;;;;;;;;;;1686393;84;20928;-74
2022/10/11 16:00:43;;;;;;;150.05;80.57;;;;;;;;;;1673205;84;21170;-73
2022/10/11 16:03:10;;;;;;;150.00;83.10;;;;;;;;;;1672257;85;28145;-74
2022/10/11 16:05:36;;;;;;;121.75;72.35;;;;;;;;;;1669621;85;21491;-73